createdAt,value
2023-03-02T00:03:25.112Z,2.40
2023-03-02T00:08:33.499Z,2.40
2023-03-02T00:13:41.378Z,2.50
2023-03-02T00:18:48.554Z,2.40
2023-03-02T00:23:55.889Z,2.40
2023-03-02T00:29:02.864Z,2.50
2023-03-02T00:34:09.847Z,2.50
2023-03-02T00:39:18.423Z,2.50
2023-03-02T00:44:25.283Z,2.50
2023-03-02T00:49:32.389Z,2.40
2023-03-02T00:54:39.334Z,2.50
2023-03-02T00:59:46.628Z,2.40
2023-03-02T01:04:55.017Z,2.50
2023-03-02T01:10:01.790Z,2.50
2023-03-02T01:15:11.387Z,2.50
2023-03-02T01:20:19.846Z,2.50
2023-03-02T01:25:26.900Z,2.50
2023-03-02T01:30:33.916Z,2.30
2023-03-02T01:35:40.879Z,2.40
2023-03-02T01:40:47.926Z,2.30
2023-03-02T01:45:58.422Z,2.30
2023-03-02T01:51:07.010Z,2.30
2023-03-02T01:56:25.768Z,2.50
2023-03-02T02:01:36.667Z,2.50
2023-03-02T02:07:05.460Z,2.50
2023-03-02T02:12:19.061Z,2.50
2023-03-02T02:17:26.762Z,2.40
2023-03-02T02:22:57.134Z,2.40
2023-03-02T02:28:10.009Z,2.50
2023-03-02T02:33:20.029Z,2.50
2023-03-02T02:38:27.610Z,2.60
2023-03-02T02:43:35.000Z,2.50
2023-03-02T02:48:42.236Z,2.50
2023-03-02T02:54:01.857Z,2.60
2023-03-02T02:59:29.213Z,2.60
2023-03-02T03:04:36.004Z,2.60
2023-03-02T03:09:42.722Z,2.60
2023-03-02T03:14:50.055Z,2.60
2023-03-02T03:19:58.329Z,2.60
2023-03-02T03:25:06.616Z,2.60
2023-03-02T03:30:15.939Z,2.50
2023-03-02T03:35:22.775Z,2.50
2023-03-02T03:40:29.481Z,2.50
2023-03-02T03:45:36.255Z,2.60
2023-03-02T03:50:42.869Z,2.60
2023-03-02T03:55:50.951Z,2.60
2023-03-02T04:00:57.826Z,2.50
2023-03-02T04:06:04.724Z,2.60
2023-03-02T04:11:11.412Z,2.60
2023-03-02T04:16:20.120Z,2.60
2023-03-02T04:21:27.626Z,2.70
2023-03-02T04:26:35.593Z,2.60
2023-03-02T04:31:43.073Z,2.60
2023-03-02T04:36:50.012Z,2.70
2023-03-02T04:41:56.762Z,2.60
2023-03-02T04:47:03.414Z,2.60
2023-03-02T04:52:10.217Z,2.70
2023-03-02T04:57:16.996Z,2.60
2023-03-02T05:02:24.334Z,2.60
2023-03-02T05:07:31.099Z,2.70
2023-03-02T05:12:39.376Z,2.70
2023-03-02T05:17:46.128Z,2.70
2023-03-02T05:22:52.825Z,2.70
2023-03-02T05:27:59.820Z,2.70
2023-03-02T05:33:06.540Z,2.60
2023-03-02T05:38:13.337Z,2.70
2023-03-02T05:43:23.694Z,2.70
2023-03-02T05:48:32.033Z,2.60
2023-03-02T05:53:38.732Z,2.60
2023-03-02T05:58:45.540Z,2.70
2023-03-02T06:03:52.296Z,2.60
2023-03-02T06:08:58.993Z,2.60
2023-03-02T06:14:05.706Z,2.60
2023-03-02T06:19:12.404Z,2.60
2023-03-02T06:24:19.213Z,2.70
2023-03-02T06:29:26.004Z,2.70
2023-03-02T06:34:35.187Z,2.70
2023-03-02T06:39:41.014Z,2.70
2023-03-02T06:44:48.608Z,2.60
2023-03-02T06:49:55.294Z,2.70
2023-03-02T06:55:02.059Z,2.80
2023-03-02T07:00:16.802Z,2.70
2023-03-02T07:05:24.788Z,2.70
2023-03-02T07:10:31.692Z,2.80
2023-03-02T07:15:42.426Z,2.80
2023-03-02T07:20:49.142Z,2.90
2023-03-02T07:25:56.137Z,3.00
2023-03-02T07:31:02.900Z,2.90
2023-03-02T07:36:10.597Z,3.00
2023-03-02T07:41:17.292Z,3.10
2023-03-02T07:46:24.040Z,3.10
2023-03-02T07:51:31.112Z,3.00
2023-03-02T07:56:38.202Z,3.10
2023-03-02T08:01:45.070Z,3.10
2023-03-02T08:06:52.628Z,3.10
2023-03-02T08:11:59.339Z,3.20
2023-03-02T08:17:07.948Z,3.20
2023-03-02T08:22:15.195Z,3.20
2023-03-02T08:27:21.966Z,3.20
2023-03-02T08:32:29.419Z,3.30
2023-03-02T08:37:36.709Z,3.40
2023-03-02T08:42:43.384Z,3.30
2023-03-02T08:47:50.100Z,3.40
2023-03-02T08:52:56.783Z,3.50
2023-03-02T08:58:04.121Z,3.50
2023-03-02T09:03:10.812Z,3.50
2023-03-02T09:08:17.534Z,3.60
2023-03-02T09:13:24.309Z,3.50
2023-03-02T09:23:58.762Z,3.40
2023-03-02T09:29:05.553Z,3.40
2023-03-02T09:34:12.690Z,3.60
2023-03-02T09:39:20.082Z,3.60
2023-03-02T09:44:56.549Z,3.50
2023-03-02T09:50:38.921Z,3.60
2023-03-02T09:55:47.383Z,3.60
2023-03-02T10:00:54.545Z,3.70
2023-03-02T10:06:01.931Z,3.80
2023-03-02T10:11:44.902Z,3.70
2023-03-02T10:17:21.585Z,3.90
2023-03-02T10:22:41.444Z,4.10
2023-03-02T10:27:55.979Z,4.30
2023-03-02T10:33:07.451Z,4.30
2023-03-02T10:38:18.832Z,4.20
2023-03-02T10:43:37.849Z,4.20
2023-03-02T10:49:01.918Z,4.00
2023-03-02T10:54:17.612Z,3.90
2023-03-02T10:59:49.157Z,4.10
2023-03-02T11:05:24.450Z,4.10
2023-03-02T11:10:44.305Z,4.30
2023-03-02T11:15:54.541Z,4.30
2023-03-02T11:21:14.369Z,4.40
2023-03-02T11:26:34.288Z,4.50
2023-03-02T11:31:51.645Z,4.50
2023-03-02T11:37:09.156Z,4.40
2023-03-02T11:42:35.448Z,4.50
2023-03-02T11:47:49.265Z,4.50
2023-03-02T11:53:05.210Z,4.50
2023-03-02T11:58:16.362Z,4.60
2023-03-02T12:03:31.130Z,4.70
2023-03-02T12:08:44.748Z,4.60
2023-03-02T12:14:26.045Z,4.70
2023-03-02T12:19:45.667Z,4.60
2023-03-02T12:24:56.941Z,4.80
2023-03-02T12:30:28.469Z,4.80
2023-03-02T12:35:37.069Z,5.00
2023-03-02T12:41:17.768Z,5.30
2023-03-02T12:46:40.048Z,5.30
2023-03-02T12:52:02.988Z,5.20
2023-03-02T12:57:19.913Z,5.10
2023-03-02T13:02:31.136Z,5.10
2023-03-02T13:07:47.707Z,5.20
2023-03-02T13:12:54.897Z,5.10
2023-03-02T13:18:03.098Z,5.30
2023-03-02T13:23:13.122Z,5.50
2023-03-02T13:28:35.229Z,5.60
2023-03-02T13:33:48.539Z,5.70
2023-03-02T13:39:01.282Z,5.40
2023-03-02T13:44:21.090Z,5.40
2023-03-02T13:49:34.241Z,5.40
2023-03-02T13:54:42.771Z,5.40
2023-03-02T13:59:50.213Z,5.40
2023-03-02T14:04:58.020Z,5.50
2023-03-02T14:10:05.820Z,5.50
2023-03-02T14:15:17.168Z,5.50
2023-03-02T14:20:24.556Z,5.20
2023-03-02T14:25:31.504Z,5.30
2023-03-02T14:30:43.601Z,5.50
2023-03-02T14:35:53.872Z,5.40
2023-03-02T14:41:01.203Z,5.30
2023-03-02T14:46:08.537Z,5.20
2023-03-02T14:51:32.113Z,5.10
2023-03-02T14:56:39.831Z,5.00
2023-03-02T15:01:46.658Z,5.00
2023-03-02T15:06:53.807Z,4.80
2023-03-02T15:12:01.045Z,4.70
2023-03-02T15:17:09.308Z,4.70
2023-03-02T15:22:16.406Z,4.60
2023-03-02T15:27:24.243Z,4.70
2023-03-02T15:32:31.317Z,4.70
2023-03-02T15:37:38.573Z,4.60
2023-03-02T15:42:45.413Z,4.60
2023-03-02T15:47:52.289Z,4.50
2023-03-02T15:52:59.269Z,4.30
2023-03-02T15:58:07.683Z,4.30
2023-03-02T16:03:15.452Z,4.40
2023-03-02T16:08:22.417Z,4.10
2023-03-02T16:13:30.933Z,4.10
2023-03-02T16:18:37.857Z,4.10
2023-03-02T16:23:44.998Z,4.00
2023-03-02T16:28:51.947Z,4.00
2023-03-02T16:33:59.929Z,3.90
2023-03-02T16:39:08.653Z,4.00
2023-03-02T16:44:16.694Z,3.90
2023-03-02T16:49:23.557Z,3.70
2023-03-02T16:54:30.582Z,3.70
2023-03-02T16:59:37.628Z,3.60
2023-03-02T17:04:44.461Z,3.50
2023-03-02T17:09:51.202Z,3.50
2023-03-02T17:14:57.987Z,3.50
2023-03-02T17:20:05.932Z,3.50
2023-03-02T17:25:14.909Z,3.40
2023-03-02T17:30:21.786Z,3.50
2023-03-02T17:35:28.643Z,3.50
2023-03-02T17:40:36.219Z,3.60
2023-03-02T17:45:43.005Z,3.70
2023-03-02T17:50:49.748Z,3.70
2023-03-02T17:55:56.438Z,3.80
2023-03-02T18:01:03.237Z,3.90
2023-03-02T18:06:10.189Z,3.90
2023-03-02T18:11:18.411Z,4.00
2023-03-02T18:16:28.332Z,4.00
2023-03-02T18:21:36.918Z,4.10
2023-03-02T18:26:43.863Z,4.10
2023-03-02T18:31:53.530Z,4.00
2023-03-02T18:37:00.468Z,4.00
2023-03-02T18:42:08.564Z,4.00
2023-03-02T18:47:18.767Z,4.00
2023-03-02T18:52:25.550Z,3.90
2023-03-02T18:57:33.930Z,3.90
2023-03-02T19:02:41.202Z,3.70
2023-03-02T19:07:50.562Z,3.70
2023-03-02T19:12:57.276Z,3.80
2023-03-02T19:18:04.062Z,3.90
2023-03-02T19:23:11.019Z,3.90
2023-03-02T19:28:18.135Z,3.70
2023-03-02T19:33:25.216Z,3.70
2023-03-02T19:38:32.058Z,3.60
2023-03-02T19:43:40.884Z,3.50
2023-03-02T19:48:47.863Z,3.40
2023-03-02T19:53:55.177Z,3.40
2023-03-02T19:59:02.554Z,3.50
2023-03-02T20:04:09.374Z,3.50
2023-03-02T20:09:17.602Z,3.60
2023-03-02T20:14:33.430Z,3.70
2023-03-02T20:19:33.090Z,3.70
2023-03-02T20:24:40.790Z,3.70
2023-03-02T20:29:48.417Z,3.70
2023-03-02T20:34:55.644Z,3.60
2023-03-02T20:40:02.816Z,3.70
2023-03-02T20:45:12.339Z,3.70
2023-03-02T20:50:23.849Z,3.60
2023-03-02T20:55:31.365Z,3.60
2023-03-02T21:00:40.343Z,3.60
2023-03-02T21:05:47.849Z,3.60
2023-03-02T21:10:54.708Z,3.60
2023-03-02T21:16:02.421Z,3.60
2023-03-02T21:21:09.508Z,3.70
2023-03-02T21:26:18.057Z,3.60
2023-03-02T21:31:25.515Z,3.50
2023-03-02T21:36:32.942Z,3.60
2023-03-02T21:41:40.664Z,3.30
2023-03-02T21:46:48.086Z,3.40
2023-03-02T21:51:55.409Z,3.20
2023-03-02T21:57:02.356Z,3.30
2023-03-02T22:02:09.889Z,3.40
2023-03-02T22:07:16.766Z,3.40
2023-03-02T22:12:25.412Z,3.30
2023-03-02T22:17:32.754Z,3.40
2023-03-02T22:22:39.692Z,3.40
2023-03-02T22:27:48.514Z,3.30
2023-03-02T22:32:56.334Z,3.40
2023-03-02T22:38:07.599Z,3.40
2023-03-02T22:43:27.038Z,3.40
2023-03-02T22:48:37.591Z,3.30
2023-03-02T22:53:57.467Z,3.20
2023-03-02T22:59:29.127Z,3.20
2023-03-02T23:04:41.169Z,3.10
2023-03-02T23:09:48.643Z,3.00
2023-03-02T23:15:00.476Z,3.00
2023-03-02T23:20:11.346Z,2.90
2023-03-02T23:25:19.874Z,3.00
2023-03-02T23:30:27.273Z,3.00
2023-03-02T23:35:34.729Z,2.90
2023-03-02T23:40:42.223Z,2.90
2023-03-02T23:45:49.137Z,2.90
2023-03-02T23:50:56.237Z,2.90
2023-03-02T23:56:03.520Z,2.90
